createdAt,value
2019-03-19T00:00:29.865Z,24.43
2019-03-19T00:03:00.543Z,27.30
2019-03-19T00:05:31.170Z,22.83
2019-03-19T00:08:01.851Z,26.27
2019-03-19T00:10:32.433Z,27.00
2019-03-19T00:13:02.872Z,26.03
2019-03-19T00:15:33.304Z,24.10
2019-03-19T00:18:04.817Z,26.90
2019-03-19T00:20:35.402Z,25.23
2019-03-19T00:23:06.216Z,25.10
2019-03-19T00:25:36.665Z,23.30
2019-03-19T00:28:07.255Z,27.63
2019-03-19T00:30:37.916Z,23.17
2019-03-19T00:33:08.477Z,27.27
2019-03-19T00:35:38.946Z,21.57
2019-03-19T00:38:09.559Z,27.30
2019-03-19T00:40:40.035Z,27.93
2019-03-19T00:43:10.477Z,25.07
2019-03-19T00:45:40.927Z,20.43
2019-03-19T00:48:11.456Z,25.13
2019-03-19T00:50:42.696Z,25.70
2019-03-19T00:53:13.227Z,26.33
2019-03-19T00:55:43.826Z,30.63
2019-03-19T00:58:14.315Z,24.57
2019-03-19T01:00:44.786Z,29.83
2019-03-19T01:03:15.257Z,24.87
2019-03-19T01:05:45.723Z,27.77
2019-03-19T01:08:16.397Z,23.53
2019-03-19T01:10:46.805Z,23.60
2019-03-19T01:13:17.457Z,25.43
2019-03-19T01:15:47.906Z,28.07
2019-03-19T01:18:18.298Z,21.03
2019-03-19T01:20:50.353Z,22.73
2019-03-19T01:23:20.903Z,23.10
2019-03-19T01:25:55.534Z,23.67
2019-03-19T01:28:23.517Z,22.37
2019-03-19T01:30:54.133Z,26.37
2019-03-19T01:33:24.603Z,21.47
2019-03-19T01:35:55.176Z,23.50
2019-03-19T01:38:25.667Z,23.33
2019-03-19T01:40:56.132Z,24.43
2019-03-19T01:43:26.829Z,24.00
2019-03-19T01:45:57.495Z,22.17
2019-03-19T01:48:28.225Z,26.30
2019-03-19T01:50:58.826Z,27.03
2019-03-19T01:53:29.356Z,21.47
2019-03-19T01:56:05.232Z,22.73
2019-03-19T01:58:31.967Z,24.37
2019-03-19T02:01:02.525Z,21.00
2019-03-19T02:03:33.154Z,25.23
2019-03-19T02:06:03.673Z,26.53
2019-03-19T02:08:34.408Z,22.00
2019-03-19T02:11:04.992Z,21.50
2019-03-19T02:13:35.577Z,21.60
2019-03-19T02:16:06.118Z,25.83
2019-03-19T02:18:36.629Z,22.17
2019-03-19T02:21:07.103Z,22.07
2019-03-19T02:23:37.595Z,30.17
2019-03-19T02:26:16.060Z,20.80
2019-03-19T02:28:40.370Z,22.63
2019-03-19T02:31:10.970Z,22.73
2019-03-19T02:33:41.651Z,26.00
2019-03-19T02:36:12.171Z,25.10
2019-03-19T02:38:42.686Z,20.20
2019-03-19T02:41:14.151Z,27.17
2019-03-19T02:43:44.752Z,19.73
2019-03-19T02:46:18.486Z,22.90
2019-03-19T02:48:48.946Z,20.40
2019-03-19T02:51:19.453Z,26.80
2019-03-19T02:53:49.894Z,25.93
2019-03-19T02:56:31.745Z,24.23
2019-03-19T02:58:52.685Z,25.27
2019-03-19T03:01:23.179Z,20.43
2019-03-19T03:03:53.834Z,22.50
2019-03-19T03:06:24.229Z,23.40
2019-03-19T03:08:54.776Z,21.57
2019-03-19T03:11:25.369Z,25.10
2019-03-19T03:13:55.919Z,23.97
2019-03-19T03:16:26.352Z,30.77
2019-03-19T03:18:56.919Z,23.63
2019-03-19T03:21:27.329Z,23.07
2019-03-19T03:23:57.802Z,20.20
2019-03-19T03:26:29.408Z,20.53
2019-03-19T03:28:59.998Z,24.80
2019-03-19T03:31:30.401Z,19.10
2019-03-19T03:34:00.889Z,17.93
2019-03-19T03:36:31.415Z,21.77
2019-03-19T03:39:06.472Z,20.33
2019-03-19T03:41:37.257Z,25.23
2019-03-19T03:44:07.869Z,22.70
2019-03-19T03:46:38.450Z,22.77
2019-03-19T03:49:08.947Z,20.27
2019-03-19T03:51:39.428Z,21.63
2019-03-19T03:54:09.943Z,19.97
2019-03-19T03:56:40.568Z,20.93
2019-03-19T03:59:11.041Z,23.87
2019-03-19T04:01:41.600Z,22.37
2019-03-19T04:04:12.096Z,19.80
2019-03-19T04:06:42.548Z,23.60
2019-03-19T04:09:12.990Z,21.27
2019-03-19T04:11:43.406Z,20.00
2019-03-19T04:14:13.971Z,18.40
2019-03-19T04:16:44.501Z,22.53
2019-03-19T04:19:15.223Z,21.23
2019-03-19T04:21:45.724Z,18.83
2019-03-19T04:24:16.290Z,19.60
2019-03-19T04:26:46.792Z,24.37
2019-03-19T04:29:17.278Z,19.87
2019-03-19T04:31:47.972Z,24.27
2019-03-19T04:34:18.588Z,19.90
2019-03-19T04:36:49.013Z,22.33
2019-03-19T04:39:19.530Z,26.27
2019-03-19T04:41:49.991Z,19.87
2019-03-19T04:44:20.518Z,24.30
2019-03-19T04:46:51.080Z,20.63
2019-03-19T04:49:21.900Z,22.03
2019-03-19T04:51:53.536Z,21.03
2019-03-19T04:54:24.161Z,22.30
2019-03-19T04:56:54.816Z,23.80
2019-03-19T04:59:28.203Z,25.00
2019-03-19T05:01:58.821Z,25.77
2019-03-19T05:04:30.069Z,22.73
2019-03-19T05:07:00.631Z,20.17
2019-03-19T05:09:31.945Z,21.30
2019-03-19T05:12:02.588Z,24.47
2019-03-19T05:14:35.535Z,23.87
2019-03-19T05:17:05.928Z,30.03
2019-03-19T05:19:36.641Z,28.03
2019-03-19T05:22:07.247Z,25.07
2019-03-19T05:24:37.784Z,23.20
2019-03-19T05:27:08.520Z,24.10
2019-03-19T05:29:38.938Z,17.50
2019-03-19T05:32:09.466Z,23.23
2019-03-19T05:34:39.932Z,20.87
2019-03-19T05:37:10.528Z,25.07
2019-03-19T05:39:41.139Z,26.47
2019-03-19T05:42:11.789Z,22.93
2019-03-19T05:44:42.424Z,23.97
2019-03-19T05:47:13.175Z,20.87
2019-03-19T05:49:43.702Z,19.47
2019-03-19T05:52:14.338Z,17.47
2019-03-19T05:54:44.843Z,22.07
2019-03-19T05:57:15.615Z,25.63
2019-03-19T05:59:46.121Z,20.50
2019-03-19T06:02:18.262Z,18.30
2019-03-19T06:04:48.753Z,17.60
2019-03-19T06:07:19.434Z,22.63
2019-03-19T06:09:53.726Z,20.43
2019-03-19T06:12:24.383Z,24.40
2019-03-19T06:14:55.251Z,23.47
2019-03-19T06:17:25.852Z,17.57
2019-03-19T06:19:56.408Z,17.83
2019-03-19T06:22:27.002Z,18.97
2019-03-19T06:24:58.676Z,23.57
2019-03-19T06:27:30.401Z,17.43
2019-03-19T06:30:01.029Z,20.33
2019-03-19T06:32:32.912Z,18.13
2019-03-19T06:35:03.568Z,18.33
2019-03-19T06:37:34.091Z,16.87
2019-03-19T06:40:05.345Z,17.13
2019-03-19T06:42:35.859Z,20.57
2019-03-19T06:45:07.598Z,17.93
2019-03-19T06:47:40.597Z,22.17
2019-03-19T06:50:12.467Z,15.50
2019-03-19T06:52:43.205Z,15.33
2019-03-19T06:55:14.025Z,15.73
2019-03-19T06:57:44.649Z,24.30
2019-03-19T07:00:17.837Z,20.67
2019-03-19T07:02:48.456Z,19.30
2019-03-19T07:05:19.842Z,16.60
2019-03-19T07:07:50.575Z,19.50
2019-03-19T07:10:21.407Z,15.37
2019-03-19T07:12:52.121Z,13.63
2019-03-19T07:15:22.818Z,21.40
2019-03-19T07:17:53.481Z,15.00
2019-03-19T07:20:24.080Z,15.83
2019-03-19T07:22:54.554Z,13.10
2019-03-19T07:25:25.159Z,14.60
2019-03-19T07:27:57.726Z,15.00
2019-03-19T07:30:28.400Z,14.40
2019-03-19T07:33:00.071Z,20.43
2019-03-19T07:35:30.650Z,14.70
2019-03-19T07:38:01.237Z,17.67
2019-03-19T07:40:31.797Z,11.77
2019-03-19T07:43:02.390Z,13.70
2019-03-19T07:45:32.889Z,18.20
2019-03-19T07:48:06.667Z,10.63
2019-03-19T07:50:37.146Z,13.73
2019-03-19T07:53:07.712Z,11.13
2019-03-19T07:55:38.210Z,16.07
2019-03-19T07:58:35.878Z,10.57
2019-03-19T08:00:56.340Z,14.90
2019-03-19T08:03:27.037Z,13.80
2019-03-19T08:05:57.527Z,18.90
2019-03-19T08:08:28.097Z,15.13
2019-03-19T08:10:58.717Z,13.37
2019-03-19T08:13:29.427Z,13.67
2019-03-19T08:16:00.122Z,14.87
2019-03-19T08:18:30.725Z,17.33
2019-03-19T08:21:01.437Z,13.47
2019-03-19T08:23:32.479Z,17.40
2019-03-19T08:26:03.065Z,13.70
2019-03-19T08:28:33.900Z,13.80
2019-03-19T08:31:04.900Z,21.13
2019-03-19T08:33:37.397Z,15.90
2019-03-19T08:36:09.487Z,14.50
2019-03-19T08:38:40.081Z,18.20
2019-03-19T08:41:10.676Z,16.27
2019-03-19T08:43:41.182Z,15.87
2019-03-19T08:46:11.828Z,15.07
2019-03-19T08:48:42.545Z,17.73
2019-03-19T08:51:12.983Z,16.07
2019-03-19T08:53:43.601Z,16.13
2019-03-19T08:56:14.237Z,17.13
2019-03-19T08:58:44.718Z,20.70
2019-03-19T09:01:15.259Z,12.07
2019-03-19T09:03:45.811Z,17.07
2019-03-19T09:06:16.437Z,20.07
2019-03-19T09:08:46.939Z,18.80
2019-03-19T09:11:17.598Z,24.23
2019-03-19T09:13:48.182Z,14.00
2019-03-19T09:16:19.032Z,18.40
2019-03-19T09:18:49.468Z,18.00
2019-03-19T09:21:20.057Z,16.10
2019-03-19T09:23:50.571Z,15.73
2019-03-19T09:26:21.388Z,16.67
2019-03-19T09:28:51.905Z,14.67
2019-03-19T09:31:22.571Z,15.33
2019-03-19T09:33:53.195Z,15.73
2019-03-19T09:36:24.948Z,15.07
2019-03-19T09:38:55.618Z,17.23
2019-03-19T09:41:26.067Z,16.07
2019-03-19T09:43:56.622Z,14.73
2019-03-19T09:46:27.698Z,17.63
2019-03-19T09:48:58.111Z,21.00
2019-03-19T09:51:28.565Z,20.80
2019-03-19T09:53:58.979Z,17.93
2019-03-19T09:56:29.587Z,14.63
2019-03-19T09:59:00.175Z,11.23
2019-03-19T10:01:30.736Z,16.53
2019-03-19T10:04:01.264Z,16.63
2019-03-19T10:06:32.180Z,14.23
2019-03-19T10:09:02.859Z,14.13
2019-03-19T10:11:33.429Z,12.90
2019-03-19T10:14:04.225Z,11.17
2019-03-19T10:16:34.672Z,14.67
2019-03-19T10:19:06.100Z,12.47
2019-03-19T10:21:36.721Z,11.87
2019-03-19T10:24:07.303Z,9.23
2019-03-19T10:26:38.105Z,13.23
2019-03-19T10:29:08.738Z,10.73
2019-03-19T10:31:39.474Z,14.20
2019-03-19T10:34:10.082Z,9.63
2019-03-19T10:36:40.854Z,14.23
2019-03-19T10:39:11.312Z,11.87
2019-03-19T10:41:41.793Z,15.67
2019-03-19T10:44:12.331Z,13.60
2019-03-19T10:46:42.826Z,14.13
2019-03-19T10:49:13.275Z,13.60
2019-03-19T10:51:43.738Z,12.07
2019-03-19T10:54:14.235Z,13.90
2019-03-19T10:56:44.758Z,11.13
2019-03-19T10:59:15.280Z,13.77
2019-03-19T11:01:45.927Z,11.07
2019-03-19T11:04:16.570Z,11.07
2019-03-19T11:06:48.870Z,14.83
2019-03-19T11:09:19.517Z,12.13
2019-03-19T11:11:50.102Z,16.93
2019-03-19T11:14:21.827Z,11.30
2019-03-19T11:16:52.417Z,11.83
2019-03-19T11:19:23.169Z,11.73
2019-03-19T11:21:53.757Z,11.10
2019-03-19T11:24:24.249Z,14.07
2019-03-19T11:26:54.830Z,6.27
2019-03-19T11:29:25.536Z,10.10
2019-03-19T11:31:56.365Z,13.63
2019-03-19T11:34:27.095Z,10.70
2019-03-19T11:36:58.216Z,10.90
2019-03-19T11:39:29.572Z,7.07
2019-03-19T11:41:59.942Z,10.80
2019-03-19T11:44:30.522Z,10.20
2019-03-19T11:47:01.032Z,11.47
2019-03-19T11:49:31.797Z,15.10
2019-03-19T11:52:02.457Z,11.97
2019-03-19T11:54:33.281Z,9.93
2019-03-19T11:57:03.799Z,10.90
2019-03-19T11:59:34.430Z,16.20
2019-03-19T12:02:05.027Z,14.30
2019-03-19T12:04:35.595Z,11.50
2019-03-19T12:07:06.220Z,9.93
2019-03-19T12:09:36.645Z,11.87
2019-03-19T12:12:07.129Z,11.37
2019-03-19T12:14:37.755Z,9.87
2019-03-19T12:17:08.240Z,7.83
2019-03-19T12:19:38.848Z,10.77
2019-03-19T12:22:09.343Z,14.50
2019-03-19T12:24:40.356Z,11.07
2019-03-19T12:27:10.924Z,17.13
2019-03-19T12:29:41.521Z,9.17
2019-03-19T12:32:12.028Z,9.70
2019-03-19T12:34:42.763Z,9.63
2019-03-19T12:37:13.591Z,11.87
2019-03-19T12:39:45.147Z,7.60
2019-03-19T12:42:15.751Z,9.87
2019-03-19T12:44:46.180Z,8.67
2019-03-19T12:47:16.886Z,9.17
2019-03-19T12:49:47.515Z,7.70
2019-03-19T12:52:18.207Z,8.27
2019-03-19T12:54:48.859Z,8.77
2019-03-19T12:57:19.517Z,8.07
2019-03-19T12:59:50.139Z,7.27
2019-03-19T13:02:20.779Z,9.33
2019-03-19T13:04:51.188Z,9.87
2019-03-19T13:07:21.958Z,7.33
2019-03-19T13:09:52.512Z,7.17
2019-03-19T13:12:24.263Z,13.47
2019-03-19T13:14:55.007Z,6.97
2019-03-19T13:17:25.619Z,10.10
2019-03-19T13:19:56.240Z,8.60
2019-03-19T13:22:26.769Z,6.80
2019-03-19T13:24:57.389Z,9.13
2019-03-19T13:27:29.139Z,8.10
2019-03-19T13:30:00.538Z,11.80
2019-03-19T13:32:31.067Z,7.67
2019-03-19T13:35:02.827Z,4.60
2019-03-19T13:37:33.470Z,10.83
2019-03-19T13:40:04.634Z,8.33
2019-03-19T13:42:35.266Z,11.40
2019-03-19T13:45:07.069Z,8.43
2019-03-19T13:47:38.203Z,8.57
2019-03-19T13:50:09.294Z,6.97
2019-03-19T13:52:41.336Z,7.70
2019-03-19T13:55:12.966Z,9.87
2019-03-19T13:57:43.602Z,8.43
2019-03-19T14:00:14.839Z,12.73
2019-03-19T14:02:45.657Z,10.40
2019-03-19T14:05:16.453Z,13.03
2019-03-19T14:07:48.411Z,9.57
2019-03-19T14:10:19.053Z,10.87
2019-03-19T14:12:49.618Z,10.17
2019-03-19T14:15:20.298Z,8.77
2019-03-19T14:17:50.863Z,11.20
2019-03-19T14:20:21.561Z,9.07
2019-03-19T14:22:52.117Z,9.77
2019-03-19T14:25:22.838Z,11.20
2019-03-19T14:27:53.486Z,11.00
2019-03-19T14:30:24.203Z,10.83
2019-03-19T14:32:55.033Z,8.80
2019-03-19T14:35:36.632Z,9.50
2019-03-19T14:37:57.923Z,11.77
2019-03-19T14:40:28.780Z,8.23
2019-03-19T14:43:01.452Z,11.57
2019-03-19T14:45:31.988Z,9.13
2019-03-19T14:48:02.698Z,8.70
2019-03-19T14:50:33.125Z,9.97
2019-03-19T14:53:03.984Z,11.00
2019-03-19T14:55:34.556Z,10.60
2019-03-19T14:58:07.473Z,9.33
2019-03-19T15:00:38.157Z,10.60
2019-03-19T15:03:08.712Z,7.30
2019-03-19T15:05:39.367Z,7.13
2019-03-19T15:08:10.072Z,10.57
2019-03-19T15:10:40.912Z,9.20
2019-03-19T15:13:11.747Z,11.53
2019-03-19T15:15:42.435Z,10.27
2019-03-19T15:18:13.286Z,13.57
2019-03-19T15:20:43.845Z,9.53
2019-03-19T15:23:14.610Z,10.13
2019-03-19T15:25:45.362Z,11.60
2019-03-19T15:28:15.817Z,10.50
2019-03-19T15:30:46.481Z,9.20
2019-03-19T15:33:17.157Z,12.43
2019-03-19T15:35:47.928Z,10.40
2019-03-19T15:38:18.581Z,8.47
2019-03-19T15:40:49.112Z,13.90
2019-03-19T15:43:19.616Z,11.63
2019-03-19T15:45:50.368Z,15.83
2019-03-19T15:48:22.159Z,13.60
2019-03-19T15:50:52.793Z,14.83
2019-03-19T15:53:26.359Z,15.33
2019-03-19T15:55:58.827Z,13.67
2019-03-19T15:58:29.404Z,16.90
2019-03-19T16:01:00.037Z,16.43
2019-03-19T16:03:30.761Z,16.30
2019-03-19T16:06:01.460Z,15.87
2019-03-19T16:08:32.139Z,24.87
2019-03-19T16:11:03.050Z,18.57
2019-03-19T16:13:33.451Z,21.20
2019-03-19T16:16:06.778Z,16.77
2019-03-19T16:18:38.525Z,19.53
2019-03-19T16:21:09.354Z,25.50
2019-03-19T16:23:40.430Z,20.30
2019-03-19T16:26:11.394Z,20.67
2019-03-19T16:28:42.188Z,23.10
2019-03-19T16:31:12.810Z,23.17
2019-03-19T16:33:43.682Z,21.20
2019-03-19T16:36:14.606Z,25.00
2019-03-19T16:38:46.276Z,26.37
2019-03-19T16:41:16.827Z,24.40
2019-03-19T16:43:47.485Z,26.10
2019-03-19T16:46:18.158Z,24.53
2019-03-19T16:48:48.876Z,24.10
2019-03-19T16:51:19.477Z,27.43
2019-03-19T16:53:50.028Z,28.23
2019-03-19T16:56:20.697Z,22.43
2019-03-19T16:58:52.227Z,25.37
2019-03-19T17:01:22.772Z,25.03
2019-03-19T17:03:53.548Z,25.57
2019-03-19T17:06:24.202Z,30.47
2019-03-19T17:08:55.039Z,27.67
2019-03-19T17:11:25.723Z,31.33
2019-03-19T17:13:56.237Z,34.33
2019-03-19T17:16:29.726Z,29.83
2019-03-19T17:19:00.717Z,31.30
2019-03-19T17:21:31.409Z,29.13
2019-03-19T17:24:03.184Z,31.23
2019-03-19T17:26:33.986Z,32.53
2019-03-19T17:29:06.085Z,34.80
2019-03-19T17:31:37.117Z,34.47
2019-03-19T17:34:07.826Z,34.73
2019-03-19T17:36:38.667Z,36.97
2019-03-19T17:39:09.332Z,40.50
2019-03-19T17:41:40.034Z,42.27
2019-03-19T17:44:10.793Z,46.77
2019-03-19T17:46:41.920Z,44.30
2019-03-19T17:49:13.772Z,43.03
2019-03-19T17:51:44.713Z,48.60
2019-03-19T17:54:15.841Z,51.97
2019-03-19T17:56:51.848Z,42.47
2019-03-19T17:59:22.807Z,51.63
2019-03-19T18:01:53.927Z,47.67
2019-03-19T18:04:27.120Z,47.00
2019-03-19T18:06:57.968Z,48.97
2019-03-19T18:09:31.630Z,40.10
2019-03-19T18:12:04.138Z,47.10
2019-03-19T18:14:44.394Z,41.90
2019-03-19T18:17:16.509Z,48.00
2019-03-19T18:19:49.218Z,52.90
2019-03-19T18:22:20.231Z,50.93
2019-03-19T18:24:50.892Z,56.80
2019-03-19T18:27:21.978Z,59.23
2019-03-19T18:29:55.577Z,54.93
2019-03-19T18:32:34.748Z,66.20
2019-03-19T18:34:59.629Z,61.70
2019-03-19T18:37:30.481Z,58.97
2019-03-19T18:40:01.513Z,62.57
2019-03-19T18:42:32.415Z,59.53
2019-03-19T18:45:03.605Z,57.00
2019-03-19T18:47:35.840Z,59.93
2019-03-19T18:50:09.235Z,59.77
2019-03-19T18:52:40.512Z,69.20
2019-03-19T18:55:11.620Z,63.00
2019-03-19T18:57:42.903Z,62.40
2019-03-19T19:00:16.886Z,61.27
2019-03-19T19:02:51.079Z,66.40
2019-03-19T19:05:23.599Z,59.93
2019-03-19T19:07:56.359Z,67.23
2019-03-19T19:10:32.169Z,72.37
2019-03-19T19:13:06.725Z,60.63
2019-03-19T19:15:39.734Z,58.73
2019-03-19T19:18:10.768Z,51.10
2019-03-19T19:20:42.584Z,60.27
2019-03-19T19:23:15.477Z,58.50
2019-03-19T19:25:47.520Z,50.77
2019-03-19T19:28:20.617Z,54.33
2019-03-19T19:30:52.926Z,57.60
2019-03-19T19:33:23.864Z,60.60
2019-03-19T19:35:57.929Z,56.00
2019-03-19T19:38:31.071Z,53.07
2019-03-19T19:41:04.900Z,56.37
2019-03-19T19:43:36.075Z,54.13
2019-03-19T19:46:07.846Z,59.20
2019-03-19T19:48:39.425Z,51.23
2019-03-19T19:51:10.481Z,50.80
2019-03-19T19:53:41.631Z,56.03
2019-03-19T19:56:13.583Z,57.70
2019-03-19T19:58:48.555Z,59.13
2019-03-19T20:01:19.845Z,61.97
2019-03-19T20:03:51.765Z,67.17
2019-03-19T20:06:22.607Z,58.43
2019-03-19T20:08:53.292Z,73.33
2019-03-19T20:11:24.171Z,50.27
2019-03-19T20:13:55.288Z,63.17
2019-03-19T20:16:27.065Z,63.10
2019-03-19T20:18:58.008Z,61.23
2019-03-19T20:21:29.227Z,62.17
2019-03-19T20:24:00.174Z,59.27
2019-03-19T20:26:32.583Z,62.67
2019-03-19T20:29:03.309Z,60.50
2019-03-19T20:31:33.977Z,58.07
2019-03-19T20:34:04.855Z,55.00
2019-03-19T20:36:35.744Z,60.20
2019-03-19T20:39:08.445Z,60.90
2019-03-19T20:41:39.444Z,66.70
2019-03-19T20:44:10.245Z,60.17
2019-03-19T20:46:40.975Z,65.73
2019-03-19T20:49:13.655Z,67.70
2019-03-19T20:51:44.607Z,64.03
2019-03-19T20:54:17.478Z,68.17
2019-03-19T20:56:48.327Z,77.23
2019-03-19T20:59:24.739Z,76.80
2019-03-19T21:01:55.624Z,82.43
2019-03-19T21:04:28.697Z,90.50
2019-03-19T21:06:58.555Z,102.73
2019-03-19T21:09:29.006Z,101.23
2019-03-19T21:11:59.592Z,93.87
2019-03-19T21:14:30.051Z,93.83
2019-03-19T21:17:01.627Z,94.00
2019-03-19T21:19:32.214Z,77.27
2019-03-19T21:22:05.770Z,76.93
2019-03-19T21:24:36.416Z,80.83
2019-03-19T21:27:06.897Z,94.57
2019-03-19T21:29:37.472Z,93.17
2019-03-19T21:32:08.068Z,97.63
2019-03-19T21:34:44.560Z,96.50
2019-03-19T21:37:20.645Z,97.63
2019-03-19T21:39:52.226Z,89.17
2019-03-19T21:42:22.715Z,97.30
2019-03-19T21:44:53.278Z,103.67
2019-03-19T21:47:24.076Z,104.90
2019-03-19T21:49:54.716Z,123.80
2019-03-19T21:52:25.446Z,104.17
2019-03-19T21:54:55.938Z,117.63
2019-03-19T21:57:29.067Z,110.23
2019-03-19T21:59:59.587Z,105.00
2019-03-19T22:02:30.339Z,111.10
2019-03-19T22:05:00.865Z,121.37
2019-03-19T22:07:32.642Z,126.77
2019-03-19T22:10:03.228Z,119.57
2019-03-19T22:12:33.831Z,148.03
2019-03-19T22:15:05.028Z,227.73
2019-03-19T22:17:35.708Z,167.97
2019-03-19T22:20:06.696Z,109.13
2019-03-19T22:22:40.903Z,119.87
2019-03-19T22:25:32.732Z,106.77
2019-03-19T22:28:03.408Z,92.73
2019-03-19T22:30:34.381Z,100.03
2019-03-19T22:33:05.109Z,96.17
2019-03-19T22:35:35.778Z,102.63
2019-03-19T22:38:06.508Z,102.30
2019-03-19T22:40:38.983Z,87.20
2019-03-19T22:43:09.519Z,84.90
2019-03-19T22:45:40.110Z,86.37
2019-03-19T22:48:12.270Z,100.53
2019-03-19T22:50:42.914Z,96.07
2019-03-19T22:53:13.453Z,99.37
2019-03-19T22:55:43.962Z,99.37
2019-03-19T22:58:14.471Z,87.17
2019-03-19T23:00:49.894Z,105.13
2019-03-19T23:03:20.587Z,91.73
2019-03-19T23:05:51.117Z,83.57
2019-03-19T23:08:21.667Z,77.27
2019-03-19T23:10:52.298Z,77.97
2019-03-19T23:13:22.916Z,72.50
2019-03-19T23:15:53.666Z,69.63
2019-03-19T23:18:24.218Z,76.33
2019-03-19T23:20:54.918Z,79.20
2019-03-19T23:23:25.654Z,74.07
2019-03-19T23:25:56.364Z,69.00
2019-03-19T23:28:27.036Z,74.40
2019-03-19T23:30:57.730Z,79.07
2019-03-19T23:33:28.376Z,82.00
2019-03-19T23:35:59.010Z,79.33
2019-03-19T23:38:29.588Z,80.30
2019-03-19T23:41:00.271Z,84.33
2019-03-19T23:43:30.917Z,86.37
2019-03-19T23:46:01.511Z,91.40
2019-03-19T23:48:32.174Z,96.07
2019-03-19T23:51:02.868Z,89.13
2019-03-19T23:53:33.538Z,83.00
2019-03-19T23:56:04.220Z,86.87
2019-03-19T23:58:34.906Z,84.00
